x

9414763 - Oakland, Ca (lndc1) Weather Station

10:30pm - Sun 28th Aug 2016 All times are PDT. -7 hours from GMT.

  • Wind
    6mph, 9mph gusts
  • Air Temp 60°f
  • Sea Pressure 1018.7mb
  • 9414763 - Oakland, Ca
  • 9414763 - Oakland, Ca

More Historic Weather Station data

Upgrade to MSW Pro to gain access to the past 30 days of data for over 8000 Wavebouys and Weather Stations around the globe.

Join Pro

Comparision Forecast

View Surf forecast
   
Sun 08/28 10:30pm 6 9 mph 1018.7mb 60f
10:18pm 3 7 mph 1018.6mb 61f
10:06pm 5 8 mph 1018.6mb 60f
9:48pm 8 9 mph 1018.6mb 61f
9:36pm 6 9 mph 1018.3mb 61f
9:30pm 6 7 mph 1018.2mb 62f
9:24pm 5 7 mph 1018.1mb 62f
9:18pm 5 7 mph 1017.9mb 61f
9:12pm 5 9 mph 1017.8mb 61f
9:00pm 7 10 mph 1017.8mb 61f
8:54pm 8 9 mph 1017.7mb 62f
8:36pm 6 8 mph 1017.7mb 61f
8:18pm 7 9 mph 1017.9mb 62f
8:00pm 7 10 mph 1017.8mb 62f
7:54pm 7 10 mph 1017.7mb 63f
7:48pm 9 11 mph 1017.6mb 63f
7:42pm 9 13 mph 1017.5mb 63f
7:36pm 6 11 mph 1017.5mb 63f
7:30pm 7 10 mph 1017.5mb 63f
7:24pm 8 10 mph 1017.5mb 63f
7:18pm 6 10 mph 1017.5mb 64f
7:12pm 9 11 mph 1017.4mb 64f
6:54pm 7 11 mph 1017.3mb 64f
6:42pm 8 11 mph 1017.4mb 64f
6:36pm 6 9 mph 1017.5mb 65f
6:00pm  -  mph 1017.6mb 65f
5:54pm  -  mph 1017.6mb 65f
5:36pm 8 13 mph 1017.6mb 65f
5:30pm 9 14 mph 1017.6mb 65f
5:18pm  -  mph 1017.6mb 65f
5:06pm  -  mph 1017.6mb 66f
5:00pm 9 13 mph 1017.6mb 66f
4:54pm 9 14 mph 1017.6mb 66f
4:36pm 11 15 mph - 65f
4:18pm  -  mph 1017.8mb 66f
4:06pm  -  mph 1018mb 65f
4:00pm 8 13 mph 1018mb 66f
3:42pm 8 14 mph 1018mb 66f
3:36pm 8 13 mph 1018mb 66f
3:18pm  -  mph 1018.2mb 65f
3:12pm  -  mph 1018.2mb 65f
3:00pm  -  mph 1018.4mb 65f
2:48pm  -  mph - 65f
2:36pm  -  mph - 65f
2:24pm 8 13 mph 1018.6mb 65f
2:18pm 8 13 mph 1018.7mb 65f
1:54pm 7 11 mph 1018.9mb 65f
12:30pm 5 8 mph 1019.1mb 64f
12:12pm 6 10 mph 1019mb 63f
12:00pm 6 9 mph 1019mb 63f
11:54am 7 10 mph 1019mb 63f
11:48am 6 8 mph 1019mb 63f
11:42am 3 9 mph 1019.1mb 63f
11:30am 5 9 mph 1019.1mb 62f
11:06am 5 8 mph 1019.1mb 62f
10:48am 5 6 mph 1019.2mb 62f
10:36am 3 7 mph 1019.2mb 61f
10:30am 3 8 mph 1019.3mb 61f
10:18am 5 8 mph 1019.3mb 61f
10:12am 6 9 mph 1019.3mb 61f
10:06am 5 8 mph 1019.3mb 61f
10:00am 3 6 mph 1019.3mb 61f
9:48am 2 3 mph 1019.2mb 61f
9:42am 2 6 mph 1019.2mb 61f
9:00am 1 3 mph 1019.2mb 61f
12:18am 6 9 mph 1017.2mb 61f
Sat 08/27 11:54pm 6 9 mph 1017.2mb 62f
11:48pm 7 10 mph 1017.2mb 62f
11:30pm 6 8 mph 1017.2mb 62f
11:18pm 6 10 mph 1017.2mb 61f
10:42pm 7 10 mph 1017mb -
10:12pm 6 10 mph 1016.9mb 62f
10:06pm 7 9 mph 1016.9mb 62f
9:36pm 7 10 mph 1016.7mb 62f
9:30pm 5 8 mph 1016.7mb 62f
9:18pm 6 10 mph 1016.5mb 62f
9:12pm 8 13 mph 1016.5mb 62f
8:54pm 9 11 mph 1016.3mb 62f
8:42pm 8 10 mph 1016.1mb 62f
8:36pm 6 9 mph 1016mb 62f
8:06pm 6 9 mph 1015.9mb 62f
8:00pm 8 13 mph 1015.8mb 62f
7:54pm 8 13 mph 1015.7mb 62f
7:24pm 10 14 mph 1015.7mb 63f
7:18pm  -  mph 1015.6mb 63f
7:12pm  -  mph 1015.6mb 63f
7:00pm 8 14 mph 1015.5mb 64f
6:36pm 10 14 mph 1015.5mb 64f
6:24pm  -  mph 1015.7mb 64f
6:18pm 8 13 mph 1015.7mb 64f
5:36pm 10 17 mph 1015.7mb 65f
5:24pm 9 14 mph 1015.6mb 65f
5:18pm 8 11 mph 1015.6mb 65f
5:12pm 9 13 mph 1015.6mb 65f
4:42pm 9 13 mph 1015.7mb -
4:36pm 10 14 mph 1015.6mb -
4:18pm 9 17 mph 1015.8mb 65f
3:48pm 10 16 mph - -
3:42pm 13 16 mph - -
3:30pm 9 15 mph 1016mb 64f
3:24pm 10 14 mph 1016.1mb 64f
3:06pm 11 14 mph 1016.1mb 64f
2:54pm 9 15 mph 1016.2mb 65f
2:36pm  -  mph - 64f
2:30pm 10 16 mph 1016.2mb 65f
2:18pm 9 15 mph 1016.3mb 64f
2:00pm 8 15 mph 1016.5mb 65f
1:54pm 10 16 mph 1016.5mb 65f
1:36pm 10 15 mph 1016.6mb 64f
1:30pm 9 15 mph 1016.7mb 64f
1:24pm 13 16 mph 1016.6mb 64f
1:18pm 9 15 mph 1016.7mb 65f
1:12pm 10 16 mph 1016.7mb 65f
1:00pm 9 14 mph 1016.6mb 65f
12:54pm 10 15 mph 1016.6mb 65f
12:42pm 9 14 mph 1016.6mb 65f
12:06pm 8 10 mph 1016.7mb 64f
12:00pm 7 10 mph 1016.7mb 64f
11:48am 7 9 mph 1016.7mb 63f
11:30am 5 8 mph 1016.7mb 63f
11:12am 2 6 mph 1016.8mb 63f
10:48am 5 7 mph 1016.7mb 62f
10:24am 3 7 mph 1016.7mb 62f
10:18am 6 8 mph 1016.7mb 62f
10:12am 2 8 mph 1016.6mb 62f
4:36am 6 7 mph 1014.9mb 62f
3:42am 7 10 mph 1014.9mb 62f
2:42am 7 11 mph 1015mb 62f
2:06am 8 13 mph 1014.9mb 62f
1:30am 8 10 mph 1015.1mb 62f
1:18am 10 11 mph 1015.1mb 62f
12:12am 8 10 mph 1015.1mb 61f
Fri 08/26 11:36pm 9 11 mph 1015.2mb 62f
10:18pm 7 9 mph 1015.2mb 62f
9:54pm 8 13 mph 1014.9mb 62f
9:42pm 7 9 mph 1014.9mb 62f
9:18pm 7 13 mph 1014.9mb 62f
9:06pm 7 13 mph 1014.8mb 62f
9:00pm 8 13 mph 1014.7mb 62f
8:48pm 8 11 mph 1014.6mb 62f
8:42pm 7 10 mph 1014.4mb 62f
8:30pm 8 15 mph 1014.3mb 63f
8:00pm 11 17 mph 1014mb 62f
7:54pm 8 16 mph 1014mb 63f
7:48pm 10 15 mph 1013.9mb 63f
7:30pm 10 16 mph 1013.8mb 63f
7:06pm  -  mph 1013.8mb 64f
7:00pm  -  mph 1013.8mb 64f
6:48pm 11 17 mph 1013.8mb 64f
6:36pm 13 18 mph 1013.8mb 64f
6:24pm 9 20 mph 1013.7mb 65f
6:12pm  -  mph - 64f
6:06pm  -  mph - 65f
6:00pm 13 16 mph - 65f
5:54pm 11 17 mph - 65f
5:36pm 11 18 mph 1013.6mb 66f
5:30pm 10 18 mph - 66f
5:24pm 11 17 mph - 66f
5:18pm  -  mph 1013.6mb 65f
5:06pm  -  mph 1013.8mb 65f
5:00pm 11 14 mph 1013.8mb 66f
4:48pm  -  mph 1013.9mb -
4:42pm  -  mph 1013.9mb -
4:30pm 11 18 mph 1013.9mb 66f
4:18pm 11 17 mph 1013.9mb 66f
4:06pm 13 21 mph 1013.8mb 66f
4:00pm 15 20 mph 1013.9mb 66f
3:54pm 11 16 mph 1013.9mb 66f
3:36pm 11 16 mph 1014mb 65f
3:30pm 13 17 mph - 66f
3:24pm 11 17 mph - 66f
3:12pm  -  mph 1014.2mb 66f
2:42pm 11 16 mph 1014.4mb 66f
2:24pm 10 16 mph 1014.4mb 67f
2:06pm 11 16 mph 1014.4mb 67f
1:54pm 10 15 mph 1014.4mb 67f
1:48pm 9 15 mph 1014.5mb 67f
1:42pm 9 14 mph 1014.5mb 66f
1:30pm 8 10 mph 1014.5mb 66f
1:18pm 7 10 mph 1014.5mb 66f
1:00pm 8 13 mph 1014.4mb 65f
12:54pm 9 15 mph 1014.5mb 66f
12:36pm 9 14 mph 1014.5mb 65f
12:18pm 9 13 mph 1014.5mb 64f
12:12pm 9 14 mph 1014.5mb 65f
12:00pm 2 6 mph 1014.5mb 64f
11:54am  -  6 mph 1014.5mb 64f
11:48am 5 7 mph 1014.5mb 64f
11:30am 2 6 mph 1014.4mb 63f
11:24am 7 9 mph 1014.4mb 62f
10:54am 7 10 mph 1014.3mb 62f
10:36am 7 11 mph 1014.3mb 62f
10:24am 7 9 mph 1014.3mb 62f
10:18am 7 10 mph 1014.3mb 62f
10:12am 7 10 mph 1014.2mb 62f
10:06am 9 11 mph 1014.1mb 62f
10:00am 7 10 mph 1014.2mb 62f
3:36am 5 8 mph 1012.2mb 61f
3:12am 6 14 mph 1012.3mb 60f
3:00am 6 8 mph 1012.2mb 61f
2:48am 7 8 mph 1012.2mb 61f
2:12am 3 8 mph 1012.2mb 61f
2:00am 6 8 mph 1012.2mb 61f
1:24am 7 8 mph 1012.3mb 61f
12:42am 7 9 mph 1012.3mb 61f
Thu 08/25 11:42pm 8 11 mph 1012.5mb -
11:06pm 6 9 mph 1012.7mb 61f
10:54pm 7 9 mph 1012.9mb 61f
10:42pm 6 9 mph 1012.9mb -
10:18pm 8 11 mph 1013mb 61f
10:12pm 8 11 mph 1013mb 61f
9:06pm 8 10 mph 1013mb 60f
8:24pm 9 13 mph 1012.7mb 60f
8:18pm 8 11 mph 1012.7mb 60f
8:12pm 9 15 mph 1012.6mb 60f
8:06pm 10 13 mph 1012.6mb 60f
8:00pm 8 13 mph 1012.5mb 61f
7:36pm 10 15 mph 1012.4mb 60f
7:24pm 8 14 mph 1012.3mb 60f
7:18pm  -  mph 1012.3mb 60f
7:12pm  -  mph 1012.2mb 60f
7:00pm  -  mph 1012.2mb 60f
6:42pm  -  mph 1012.2mb 61f
6:36pm  -  mph 1012.1mb 60f
6:24pm 8 11 mph 1012.1mb 61f
6:18pm  -  mph 1012.2mb 61f
6:06pm  -  mph 1012.2mb 61f
5:54pm 7 14 mph 1012.1mb 61f
5:48pm  -  mph 1012.2mb 62f
5:24pm 8 13 mph 1012.2mb 62f
5:18pm  -  mph 1012.2mb 62f
5:12pm  -  mph 1012.2mb 62f
5:06pm  -  mph 1012.2mb 62f
4:54pm  -  mph 1012.2mb 63f
4:42pm 9 13 mph 1012.3mb -
4:18pm  -  mph 1012.5mb 62f
4:12pm  -  mph 1012.5mb 63f
4:00pm  -  mph 1012.6mb 63f
3:48pm  -  mph 1012.7mb 62f
3:42pm  -  mph 1012.8mb 62f
3:30pm 8 14 mph 1012.8mb 63f
3:06pm  -  mph 1013mb 62f
2:42pm 7 9 mph 1013.3mb 62f
2:36pm 7 11 mph 1013.4mb 62f
2:06pm 7 11 mph 1013.7mb 62f
2:00pm 5 10 mph 1013.8mb 62f
1:48pm 5 9 mph 1013.8mb 61f
11:24am 5 7 mph 1015mb 57f
11:12am 5 7 mph 1015.1mb 57f
11:00am 2 6 mph 1015.2mb 57f
10:54am 3 7 mph 1015.2mb 57f
10:24am 5 8 mph 1015.3mb 57f
10:18am 5 7 mph 1015.3mb 56f
10:00am  -  2 mph 1015.2mb 57f
9:42am 7 8 mph 1015.3mb 56f
8:42am 5 7 mph 1015.4mb 56f
8:36am 5 8 mph 1015.4mb 56f
8:18am 5 8 mph 1015.4mb 56f
8:06am 5 8 mph 1015.3mb 55f
7:42am 6 8 mph 1015.2mb 56f
7:30am 5 8 mph 1015.1mb 56f
7:00am 7 10 mph 1015mb 56f
6:42am 5 7 mph 1014.8mb 56f
6:24am 6 8 mph 1014.7mb 55f